createdAt,value
2023-02-18T00:01:35.789Z,11.02
2023-02-18T00:04:02.713Z,10.92
2023-02-18T00:06:33.368Z,10.98
2023-02-18T00:09:02.496Z,10.97
2023-02-18T00:11:31.845Z,10.96
2023-02-18T00:14:01.655Z,10.94
2023-02-18T00:16:29.786Z,10.96
2023-02-18T00:19:00.529Z,10.93
2023-02-18T00:21:27.777Z,10.92
2023-02-18T00:23:55.540Z,10.93
2023-02-18T00:26:22.670Z,10.93
2023-02-18T00:28:51.383Z,10.93
2023-02-18T00:31:25.025Z,10.92
2023-02-18T00:33:52.616Z,10.94
2023-02-18T00:36:22.255Z,10.89
2023-02-18T00:38:52.889Z,10.90
2023-02-18T00:41:21.467Z,10.99
2023-02-18T00:43:48.854Z,11.01
2023-02-18T00:46:16.045Z,11.03
2023-02-18T00:48:42.936Z,11.00
2023-02-18T00:51:11.354Z,11.01
2023-02-18T00:53:39.199Z,11.02
2023-02-18T00:56:07.365Z,11.02
2023-02-18T00:58:36.119Z,11.03
2023-02-18T01:01:07.665Z,11.05
2023-02-18T01:03:36.169Z,11.03
2023-02-18T01:06:04.919Z,11.02
2023-02-18T01:08:33.805Z,11.01
2023-02-18T01:11:01.033Z,10.99
2023-02-18T01:13:28.831Z,11.00
2023-02-18T01:15:56.079Z,11.00
2023-02-18T01:18:25.182Z,10.96
2023-02-18T01:20:52.242Z,10.92
2023-02-18T01:23:19.648Z,10.91
2023-02-18T01:25:48.713Z,10.84
2023-02-18T01:28:16.490Z,10.85
2023-02-18T01:30:44.167Z,10.85
2023-02-18T01:33:11.724Z,10.80
2023-02-18T01:35:40.644Z,10.79
2023-02-18T01:38:08.130Z,10.76
2023-02-18T01:40:35.366Z,10.73
2023-02-18T01:43:02.390Z,10.71
2023-02-18T01:45:35.531Z,10.67
2023-02-18T01:48:15.669Z,10.66
2023-02-18T01:50:54.588Z,10.64
2023-02-18T01:53:33.637Z,10.63
2023-02-18T01:56:05.656Z,10.63
2023-02-18T01:58:33.487Z,10.59
2023-02-18T02:01:01.827Z,10.56
2023-02-18T02:03:28.826Z,10.59
2023-02-18T02:05:55.874Z,10.59
2023-02-18T02:08:22.892Z,10.56
2023-02-18T02:11:23.616Z,10.52
2023-02-18T02:14:08.526Z,10.48
2023-02-18T02:16:40.483Z,10.47
2023-02-18T02:19:46.926Z,10.43
2023-02-18T02:22:46.736Z,10.38
2023-02-18T02:25:59.570Z,10.36
2023-02-18T02:29:29.128Z,10.30
2023-02-18T02:32:25.006Z,10.27
2023-02-18T02:34:58.947Z,10.26
2023-02-18T02:37:53.242Z,10.25
2023-02-18T02:40:42.116Z,10.23
2023-02-18T02:43:41.739Z,10.19
2023-02-18T02:46:20.703Z,10.24
2023-02-18T02:49:09.301Z,10.23
2023-02-18T02:51:47.177Z,10.24
2023-02-18T02:54:20.223Z,10.24
2023-02-18T02:56:47.448Z,10.24
2023-02-18T02:59:23.170Z,10.25
2023-02-18T03:02:26.501Z,10.25
2023-02-18T03:05:21.732Z,10.26
2023-02-18T03:08:23.875Z,10.27
2023-02-18T03:11:12.487Z,10.23
2023-02-18T03:14:15.293Z,10.27
2023-02-18T03:16:49.613Z,10.26
2023-02-18T03:19:26.344Z,10.27
2023-02-18T03:22:05.757Z,10.23
2023-02-18T03:24:39.486Z,10.30
2023-02-18T03:27:21.824Z,10.27
2023-02-18T03:29:56.921Z,10.26
2023-02-18T03:32:25.814Z,10.22
2023-02-18T03:35:00.609Z,10.25
2023-02-18T03:37:27.797Z,10.21
2023-02-18T03:39:59.907Z,10.25
2023-02-18T03:42:28.859Z,10.24
2023-02-18T03:44:55.902Z,10.22
2023-02-18T03:47:24.799Z,10.21
2023-02-18T03:49:51.729Z,10.18
2023-02-18T03:52:18.692Z,10.19
2023-02-18T03:54:45.710Z,10.17
2023-02-18T03:57:12.694Z,10.12
2023-02-18T03:59:39.590Z,10.14
2023-02-18T04:02:06.506Z,10.14
2023-02-18T04:04:33.518Z,10.13
2023-02-18T04:07:00.451Z,10.12
2023-02-18T04:09:27.321Z,10.12
2023-02-18T04:11:54.232Z,10.11
2023-02-18T04:14:21.111Z,10.11
2023-02-18T04:16:48.038Z,10.11
2023-02-18T04:19:15.021Z,10.08
2023-02-18T04:21:41.911Z,10.06
2023-02-18T04:24:09.078Z,10.03
2023-02-18T04:26:36.080Z,10.02
2023-02-18T04:29:02.967Z,9.99
2023-02-18T04:31:29.966Z,9.98
2023-02-18T04:33:56.911Z,9.96
2023-02-18T04:36:24.035Z,9.88
2023-02-18T04:38:50.928Z,9.93
2023-02-18T04:41:17.831Z,9.91
2023-02-18T04:43:44.710Z,9.90
2023-02-18T04:46:11.727Z,9.90
2023-02-18T04:48:38.779Z,9.87
2023-02-18T04:51:05.911Z,9.87
2023-02-18T04:53:32.796Z,9.86
2023-02-18T04:55:59.919Z,9.85
2023-02-18T04:58:26.807Z,9.88
2023-02-18T05:00:54.055Z,9.88
2023-02-18T05:03:21.389Z,9.88
2023-02-18T05:05:48.342Z,9.89
2023-02-18T05:08:16.304Z,9.90
2023-02-18T05:10:43.242Z,9.90
2023-02-18T05:13:10.155Z,9.91
2023-02-18T05:15:37.214Z,9.91
2023-02-18T05:18:04.212Z,9.92
2023-02-18T05:20:31.357Z,9.93
2023-02-18T05:22:58.307Z,9.92
2023-02-18T05:25:25.348Z,9.93
2023-02-18T05:27:52.238Z,9.93
2023-02-18T05:30:19.321Z,9.92
2023-02-18T05:32:46.211Z,9.88
2023-02-18T05:35:14.006Z,9.90
2023-02-18T05:37:40.879Z,9.94
2023-02-18T05:40:08.316Z,9.92
2023-02-18T05:42:35.203Z,9.93
2023-02-18T05:45:02.096Z,10.00
2023-02-18T05:47:28.982Z,10.01
2023-02-18T05:49:56.123Z,10.03
2023-02-18T05:52:23.431Z,10.04
2023-02-18T05:54:50.343Z,10.06
2023-02-18T05:57:17.290Z,10.03
2023-02-18T05:59:44.199Z,10.11
2023-02-18T06:02:11.161Z,10.12
2023-02-18T06:04:38.127Z,10.12
2023-02-18T06:07:05.118Z,10.14
2023-02-18T06:09:32.034Z,10.16
2023-02-18T06:11:58.942Z,10.16
2023-02-18T06:14:25.866Z,10.12
2023-02-18T06:16:52.730Z,10.18
2023-02-18T06:19:19.603Z,10.20
2023-02-18T06:21:46.541Z,10.20
2023-02-18T06:24:13.419Z,10.22
2023-02-18T06:26:40.302Z,10.25
2023-02-18T06:29:07.222Z,10.26
2023-02-18T06:31:34.231Z,10.26
2023-02-18T06:34:01.197Z,10.29
2023-02-18T06:36:28.073Z,10.32
2023-02-18T06:38:57.405Z,10.30
2023-02-18T06:41:24.486Z,10.32
2023-02-18T06:43:51.652Z,10.33
2023-02-18T06:46:18.586Z,10.31
2023-02-18T06:48:45.525Z,10.29
2023-02-18T06:51:12.454Z,10.28
2023-02-18T06:53:39.366Z,10.27
2023-02-18T06:56:06.488Z,10.26
2023-02-18T06:58:33.610Z,10.24
2023-02-18T07:01:00.570Z,10.26
2023-02-18T07:03:27.855Z,10.27
2023-02-18T07:05:54.792Z,10.28
2023-02-18T07:08:21.832Z,10.29
2023-02-18T07:10:49.471Z,10.26
2023-02-18T07:13:16.434Z,10.20
2023-02-18T07:15:43.450Z,10.27
2023-02-18T07:18:10.371Z,10.28
2023-02-18T07:20:37.264Z,10.31
2023-02-18T07:23:04.267Z,10.34
2023-02-18T07:25:31.142Z,10.37
2023-02-18T07:27:58.045Z,10.39
2023-02-18T07:30:25.000Z,10.43
2023-02-18T07:32:51.916Z,10.45
2023-02-18T07:35:19.147Z,10.49
2023-02-18T07:37:48.484Z,10.53
2023-02-18T07:40:20.245Z,10.56
2023-02-18T07:42:47.750Z,10.59
2023-02-18T07:45:15.374Z,10.63
2023-02-18T07:47:42.579Z,10.65
2023-02-18T07:50:11.159Z,10.69
2023-02-18T07:52:38.094Z,10.72
2023-02-18T07:55:05.301Z,10.77
2023-02-18T07:57:32.268Z,10.80
2023-02-18T07:59:59.195Z,10.89
2023-02-18T08:02:26.238Z,10.95
2023-02-18T08:04:53.175Z,11.00
2023-02-18T08:07:22.035Z,11.03
2023-02-18T08:09:50.693Z,11.09
2023-02-18T08:12:18.107Z,11.13
2023-02-18T08:14:45.911Z,11.18
2023-02-18T08:17:12.798Z,11.22
2023-02-18T08:19:39.685Z,11.28
2023-02-18T08:22:06.630Z,11.33
2023-02-18T08:24:33.519Z,11.40
2023-02-18T08:27:01.717Z,11.49
2023-02-18T08:29:29.787Z,11.60
2023-02-18T08:31:58.186Z,11.69
2023-02-18T08:34:25.739Z,11.72
2023-02-18T08:36:52.620Z,11.72
2023-02-18T08:39:19.513Z,11.80
2023-02-18T08:41:46.385Z,11.79
2023-02-18T08:44:13.270Z,11.82
2023-02-18T08:46:40.213Z,11.81
2023-02-18T08:49:07.239Z,11.83
2023-02-18T08:51:34.527Z,11.85
2023-02-18T08:54:01.808Z,11.88
2023-02-18T08:56:28.771Z,11.91
2023-02-18T08:58:55.671Z,11.95
2023-02-18T09:01:22.612Z,11.98
2023-02-18T09:03:49.694Z,11.99
2023-02-18T09:06:16.706Z,11.99
2023-02-18T09:08:43.755Z,12.02
2023-02-18T09:11:11.654Z,12.09
2023-02-18T09:13:38.954Z,12.13
2023-02-18T09:16:15.389Z,12.14
2023-02-18T09:18:42.515Z,12.14
2023-02-18T09:21:11.804Z,12.20
2023-02-18T09:23:39.428Z,12.22
2023-02-18T09:26:09.932Z,12.24
2023-02-18T09:28:37.409Z,12.26
2023-02-18T09:31:10.688Z,12.26
2023-02-18T09:33:40.459Z,12.27
2023-02-18T09:36:08.352Z,12.29
2023-02-18T09:38:35.469Z,12.31
2023-02-18T09:41:09.645Z,12.28
2023-02-18T09:43:48.619Z,12.23
2023-02-18T09:46:30.060Z,12.21
2023-02-18T09:48:58.326Z,12.24
2023-02-18T09:51:25.219Z,12.23
2023-02-18T09:53:52.134Z,12.21
2023-02-18T09:56:35.837Z,12.25
2023-02-18T09:59:10.017Z,12.28
2023-02-18T10:01:39.961Z,12.23
2023-02-18T10:04:41.221Z,12.32
2023-02-18T10:07:21.804Z,12.33
2023-02-18T10:09:52.288Z,12.36
2023-02-18T10:12:23.413Z,12.37
2023-02-18T10:14:57.431Z,12.36
2023-02-18T10:17:28.519Z,12.33
2023-02-18T10:19:56.931Z,12.40
2023-02-18T10:22:26.178Z,12.39
2023-02-18T10:25:00.126Z,12.40
2023-02-18T10:27:31.556Z,12.40
2023-02-18T10:30:24.408Z,12.39
2023-02-18T10:33:30.782Z,12.38
2023-02-18T10:36:42.103Z,12.35
2023-02-18T10:39:24.313Z,12.32
2023-02-18T10:42:30.247Z,12.30
2023-02-18T10:45:30.931Z,12.28
2023-02-18T10:48:18.723Z,12.28
2023-02-18T10:50:46.446Z,12.25
2023-02-18T10:53:34.843Z,12.29
2023-02-18T10:56:02.128Z,12.20
2023-02-18T10:58:42.933Z,12.29
2023-02-18T11:01:20.645Z,12.30
2023-02-18T11:03:51.144Z,12.28
2023-02-18T11:06:40.009Z,12.26
2023-02-18T11:09:24.093Z,12.24
2023-02-18T11:11:57.070Z,12.22
2023-02-18T11:14:46.855Z,12.18
2023-02-18T11:17:21.178Z,12.16
2023-02-18T11:20:01.738Z,12.13
2023-02-18T11:22:39.750Z,12.09
2023-02-18T11:25:28.848Z,12.07
2023-02-18T11:27:58.566Z,12.05
2023-02-18T11:30:39.562Z,12.03
2023-02-18T11:33:23.548Z,11.98
2023-02-18T11:35:58.713Z,11.99
2023-02-18T11:38:36.287Z,11.97
2023-02-18T11:41:10.055Z,11.97
2023-02-18T11:43:42.015Z,11.94
2023-02-18T11:46:19.475Z,11.92
2023-02-18T11:48:47.133Z,11.86
2023-02-18T11:51:36.537Z,11.81
2023-02-18T11:54:30.134Z,11.78
2023-02-18T11:57:09.562Z,11.74
2023-02-18T11:59:40.723Z,11.70
2023-02-18T12:02:10.707Z,11.68
2023-02-18T12:04:44.194Z,11.65
2023-02-18T12:07:31.800Z,11.59
2023-02-18T12:10:05.220Z,11.53
2023-02-18T12:12:46.870Z,11.48
2023-02-18T12:15:20.595Z,11.44
2023-02-18T12:18:11.650Z,11.37
2023-02-18T12:21:12.708Z,11.30
2023-02-18T12:24:14.975Z,11.23
2023-02-18T12:26:54.594Z,11.21
2023-02-18T12:30:19.389Z,11.14
2023-02-18T12:32:57.968Z,11.18
2023-02-18T12:36:07.890Z,11.19
2023-02-18T12:39:06.214Z,11.22
2023-02-18T12:42:21.538Z,11.21
2023-02-18T12:45:10.073Z,11.22
2023-02-18T12:47:57.338Z,11.24
2023-02-18T12:50:51.157Z,11.26
2023-02-18T12:54:12.950Z,11.28
2023-02-18T12:57:05.491Z,11.24
2023-02-18T13:00:11.819Z,11.17
2023-02-18T13:02:56.452Z,11.23
2023-02-18T13:05:36.844Z,11.22
2023-02-18T13:08:30.048Z,11.30
2023-02-18T13:11:12.594Z,11.36
2023-02-18T13:14:00.946Z,11.41
2023-02-18T13:16:29.413Z,11.37
2023-02-18T13:19:33.628Z,11.44
2023-02-18T13:22:06.342Z,11.44
2023-02-18T13:24:43.873Z,11.37
2023-02-18T13:27:19.279Z,11.43
2023-02-18T13:30:14.154Z,11.42
2023-02-18T13:33:21.871Z,11.39
2023-02-18T13:35:58.911Z,11.39
2023-02-18T13:39:00.101Z,11.34
2023-02-18T13:41:27.836Z,11.37
2023-02-18T13:43:55.078Z,11.34
2023-02-18T13:46:24.197Z,11.32
2023-02-18T13:49:13.284Z,11.34
2023-02-18T13:51:47.716Z,11.32
2023-02-18T13:54:17.403Z,11.31
2023-02-18T13:56:51.140Z,11.29
2023-02-18T13:59:40.276Z,11.28
2023-02-18T14:02:25.766Z,11.25
2023-02-18T14:04:58.812Z,11.24
2023-02-18T14:07:40.397Z,11.20
2023-02-18T14:10:19.046Z,11.16
2023-02-18T14:12:58.124Z,11.12
2023-02-18T14:15:25.014Z,11.10
2023-02-18T14:18:13.463Z,11.06
2023-02-18T14:20:40.321Z,11.01
2023-02-18T14:23:19.319Z,10.94
2023-02-18T14:25:55.240Z,10.83
2023-02-18T14:28:34.101Z,10.80
2023-02-18T14:31:39.237Z,10.78
2023-02-18T14:34:23.808Z,10.74
2023-02-18T14:37:05.972Z,10.68
2023-02-18T14:39:48.045Z,10.62
2023-02-18T14:42:43.705Z,10.56
2023-02-18T14:45:31.036Z,10.45
2023-02-18T14:48:49.237Z,10.47
2023-02-18T14:51:20.210Z,10.43
2023-02-18T14:53:47.802Z,10.37
2023-02-18T14:56:18.821Z,10.30
2023-02-18T14:58:51.262Z,10.25
2023-02-18T15:01:31.713Z,10.18
2023-02-18T15:04:01.006Z,10.13
2023-02-18T15:06:38.383Z,10.13
2023-02-18T15:09:19.759Z,10.12
2023-02-18T15:11:50.555Z,10.13
2023-02-18T15:14:25.095Z,10.14
2023-02-18T15:16:53.174Z,10.14
2023-02-18T15:19:26.191Z,10.15
2023-02-18T15:21:56.275Z,10.16
2023-02-18T15:24:39.023Z,10.15
2023-02-18T15:27:15.032Z,10.13
2023-02-18T15:29:42.377Z,10.11
2023-02-18T15:32:22.644Z,10.08
2023-02-18T15:34:52.538Z,9.93
2023-02-18T15:37:19.565Z,10.06
2023-02-18T15:39:46.901Z,10.05
2023-02-18T15:42:35.746Z,10.00
2023-02-18T15:45:23.739Z,10.03
2023-02-18T15:47:56.844Z,10.03
2023-02-18T15:50:36.889Z,9.97
2023-02-18T15:53:14.281Z,10.01
2023-02-18T15:55:46.478Z,10.02
2023-02-18T15:58:32.651Z,10.01
2023-02-18T16:01:06.162Z,10.02
2023-02-18T16:03:46.580Z,10.02
2023-02-18T16:06:27.307Z,10.00
2023-02-18T16:09:02.864Z,10.00
2023-02-18T16:11:43.973Z,9.99
2023-02-18T16:14:33.693Z,9.97
2023-02-18T16:17:20.201Z,9.93
2023-02-18T16:20:05.705Z,9.92
2023-02-18T16:22:36.438Z,9.90
2023-02-18T16:25:21.665Z,9.88
2023-02-18T16:27:55.331Z,9.85
2023-02-18T16:30:32.697Z,9.84
2023-02-18T16:33:00.578Z,9.82
2023-02-18T16:35:32.718Z,9.83
2023-02-18T16:38:01.867Z,9.81
2023-02-18T16:40:33.866Z,9.79
2023-02-18T16:43:10.032Z,9.77
2023-02-18T16:45:49.159Z,9.64
2023-02-18T16:48:40.642Z,9.68
2023-02-18T16:51:34.703Z,9.57
2023-02-18T16:54:01.674Z,9.57
2023-02-18T16:56:33.151Z,9.53
2023-02-18T16:59:00.187Z,9.48
2023-02-18T17:01:31.878Z,9.44
2023-02-18T17:04:00.575Z,9.39
2023-02-18T17:06:28.553Z,9.33
2023-02-18T17:08:57.101Z,9.27
2023-02-18T17:11:29.416Z,9.20
2023-02-18T17:13:59.514Z,9.15
2023-02-18T17:16:27.882Z,9.09
2023-02-18T17:18:54.794Z,9.05
2023-02-18T17:21:25.068Z,8.95
2023-02-18T17:23:52.917Z,8.91
2023-02-18T17:26:27.741Z,8.85
2023-02-18T17:28:57.847Z,8.80
2023-02-18T17:31:28.656Z,8.76
2023-02-18T17:33:59.378Z,8.72
2023-02-18T17:36:26.646Z,8.68
2023-02-18T17:38:53.825Z,8.65
2023-02-18T17:41:20.791Z,8.62
2023-02-18T17:43:47.659Z,8.58
2023-02-18T17:46:17.466Z,8.54
2023-02-18T17:48:46.162Z,8.50
2023-02-18T17:51:29.493Z,8.45
2023-02-18T17:53:56.875Z,8.42
2023-02-18T17:56:23.798Z,8.40
2023-02-18T17:58:50.702Z,8.40
2023-02-18T18:01:20.833Z,8.40
2023-02-18T18:03:47.727Z,8.41
2023-02-18T18:06:19.540Z,8.42
2023-02-18T18:08:47.983Z,8.38
2023-02-18T18:11:20.761Z,8.42
2023-02-18T18:13:48.122Z,8.42
2023-02-18T18:16:17.618Z,8.42
2023-02-18T18:18:44.918Z,8.41
2023-02-18T18:21:30.329Z,8.41
2023-02-18T18:23:57.239Z,8.42
2023-02-18T18:26:24.874Z,8.43
2023-02-18T18:28:51.739Z,8.42
2023-02-18T18:31:20.258Z,8.43
2023-02-18T18:33:51.487Z,8.44
2023-02-18T18:36:20.050Z,8.36
2023-02-18T18:38:47.018Z,8.38
2023-02-18T18:41:17.696Z,8.40
2023-02-18T18:43:45.164Z,8.39
2023-02-18T18:46:12.341Z,8.38
2023-02-18T18:48:39.948Z,8.36
2023-02-18T18:51:07.082Z,8.35
2023-02-18T18:53:35.448Z,8.32
2023-02-18T18:56:08.233Z,8.23
2023-02-18T18:58:35.122Z,8.31
2023-02-18T19:01:05.126Z,8.30
2023-02-18T19:03:33.876Z,8.28
2023-02-18T19:06:00.815Z,8.25
2023-02-18T19:08:27.778Z,8.26
2023-02-18T19:10:57.295Z,8.21
2023-02-18T19:13:28.268Z,8.25
2023-02-18T19:16:18.380Z,8.25
2023-02-18T19:18:46.324Z,8.27
2023-02-18T19:21:13.289Z,8.28
2023-02-18T19:23:40.809Z,8.28
2023-02-18T19:26:08.444Z,8.27
2023-02-18T19:28:35.476Z,8.21
2023-02-18T19:31:02.654Z,8.19
2023-02-18T19:33:29.741Z,8.19
2023-02-18T19:35:56.653Z,8.16
2023-02-18T19:38:23.533Z,8.13
2023-02-18T19:40:50.477Z,8.12
2023-02-18T19:43:17.359Z,8.11
2023-02-18T19:45:46.995Z,8.10
2023-02-18T19:48:15.430Z,8.10
2023-02-18T19:50:43.691Z,8.07
2023-02-18T19:53:11.488Z,8.05
2023-02-18T19:55:38.889Z,8.03
2023-02-18T19:58:06.404Z,8.00
2023-02-18T20:00:33.392Z,8.00
2023-02-18T20:03:00.409Z,7.97
2023-02-18T20:05:27.677Z,7.96
2023-02-18T20:07:54.568Z,7.94
2023-02-18T20:10:22.040Z,7.91
2023-02-18T20:12:53.873Z,7.89
2023-02-18T20:15:21.482Z,7.87
2023-02-18T20:17:48.454Z,7.81
2023-02-18T20:20:15.424Z,7.79
2023-02-18T20:22:42.325Z,7.75
2023-02-18T20:25:09.269Z,7.69
2023-02-18T20:27:38.421Z,7.71
2023-02-18T20:30:09.339Z,7.68
2023-02-18T20:32:37.041Z,7.66
2023-02-18T20:35:05.691Z,7.63
2023-02-18T20:37:34.244Z,7.62
2023-02-18T20:40:01.207Z,7.52
2023-02-18T20:42:28.107Z,7.58
2023-02-18T20:44:54.990Z,7.56
2023-02-18T20:47:21.958Z,7.54
2023-02-18T20:49:48.859Z,7.51
2023-02-18T20:52:16.293Z,7.50
2023-02-18T20:54:43.230Z,7.49
2023-02-18T20:57:10.136Z,7.48
2023-02-18T20:59:37.026Z,7.42
2023-02-18T21:02:04.532Z,7.42
2023-02-18T21:04:31.463Z,7.43
2023-02-18T21:06:58.385Z,7.41
2023-02-18T21:09:25.350Z,7.39
2023-02-18T21:11:52.248Z,7.38
2023-02-18T21:14:19.155Z,7.34
2023-02-18T21:16:46.389Z,7.31
2023-02-18T21:19:16.877Z,7.31
2023-02-18T21:21:45.213Z,7.31
2023-02-18T21:24:12.176Z,7.30
2023-02-18T21:26:39.472Z,7.28
2023-02-18T21:29:08.247Z,7.28
2023-02-18T21:31:41.648Z,7.22
2023-02-18T21:34:12.728Z,7.26
2023-02-18T21:36:39.710Z,7.24
2023-02-18T21:39:09.685Z,7.23
2023-02-18T21:41:40.217Z,7.22
2023-02-18T21:44:08.228Z,7.23
2023-02-18T21:46:36.674Z,7.16
2023-02-18T21:49:04.717Z,7.22
2023-02-18T21:52:01.895Z,7.24
2023-02-18T21:54:39.281Z,7.25
2023-02-18T21:57:12.429Z,7.26
2023-02-18T21:59:40.085Z,7.29
2023-02-18T22:02:14.741Z,7.32
2023-02-18T22:04:41.678Z,7.34
2023-02-18T22:07:08.886Z,7.38
2023-02-18T22:09:36.607Z,7.41
2023-02-18T22:12:04.160Z,7.46
2023-02-18T22:14:31.038Z,7.51
2023-02-18T22:16:58.142Z,7.55
2023-02-18T22:19:25.342Z,7.59
2023-02-18T22:21:52.528Z,7.63
2023-02-18T22:24:19.509Z,7.64
2023-02-18T22:26:46.957Z,7.71
2023-02-18T22:29:16.166Z,7.75
2023-02-18T22:31:43.365Z,7.79
2023-02-18T22:34:11.214Z,7.82
2023-02-18T22:36:38.361Z,7.84
2023-02-18T22:39:06.066Z,7.88
2023-02-18T22:41:34.606Z,7.90
2023-02-18T22:44:04.755Z,7.94
2023-02-18T22:46:34.142Z,7.93
2023-02-18T22:49:02.459Z,7.96
2023-02-18T22:51:33.279Z,7.99
2023-02-18T22:54:01.939Z,8.04
2023-02-18T22:56:29.968Z,8.06
2023-02-18T22:58:58.619Z,8.10
2023-02-18T23:01:31.204Z,8.13
2023-02-18T23:04:06.837Z,8.15
2023-02-18T23:06:34.272Z,8.16
2023-02-18T23:09:01.246Z,8.18
2023-02-18T23:11:28.125Z,8.20
2023-02-18T23:14:14.855Z,8.22
2023-02-18T23:17:00.606Z,8.21
2023-02-18T23:19:30.106Z,8.20
2023-02-18T23:21:57.638Z,8.21
2023-02-18T23:24:25.151Z,8.20
2023-02-18T23:26:52.018Z,8.21
2023-02-18T23:29:19.161Z,8.23
2023-02-18T23:31:46.116Z,8.23
2023-02-18T23:34:15.494Z,8.23
2023-02-18T23:36:43.675Z,8.24
2023-02-18T23:39:13.369Z,8.23
2023-02-18T23:41:40.291Z,8.22
2023-02-18T23:44:12.317Z,8.21
2023-02-18T23:46:40.333Z,8.21
2023-02-18T23:49:07.392Z,8.21
2023-02-18T23:51:34.277Z,8.19
2023-02-18T23:54:03.648Z,8.16
2023-02-18T23:56:30.830Z,8.18
2023-02-18T23:59:00.760Z,8.17
